sensor_id;sensor_type;location;lat;lon;timestamp;pressure;altitude;pressure_sealevel;temperature;humidity
70976;BME280;58635;51.198;6.010;2023-11-18T00:00:35;102236.22;;;9.45;65.10
70976;BME280;58635;51.198;6.010;2023-11-18T00:03:02;102248.16;;;9.46;65.06
70976;BME280;58635;51.198;6.010;2023-11-18T00:05:28;102251.72;;;9.45;65.04
70976;BME280;58635;51.198;6.010;2023-11-18T00:07:54;102246.69;;;9.43;65.00
70976;BME280;58635;51.198;6.010;2023-11-18T00:10:21;102238.94;;;9.43;65.01
70976;BME280;58635;51.198;6.010;2023-11-18T00:12:47;102243.31;;;9.43;64.75
70976;BME280;58635;51.198;6.010;2023-11-18T00:15:14;102246.69;;;9.43;64.82
70976;BME280;58635;51.198;6.010;2023-11-18T00:17:40;102246.84;;;9.42;65.07
70976;BME280;58635;51.198;6.010;2023-11-18T00:20:07;102250.25;;;9.42;64.91
70976;BME280;58635;51.198;6.010;2023-11-18T00:22:39;102246.03;;;9.41;64.95
70976;BME280;58635;51.198;6.010;2023-11-18T00:25:06;102242.66;;;9.41;64.95
70976;BME280;58635;51.198;6.010;2023-11-18T00:27:34;102237.50;;;9.41;65.12
70976;BME280;58635;51.198;6.010;2023-11-18T00:30:06;102247.00;;;9.40;65.05
70976;BME280;58635;51.198;6.010;2023-11-18T00:32:34;102241.19;;;9.38;64.94
70976;BME280;58635;51.198;6.010;2023-11-18T00:35:01;102237.63;;;9.39;65.06
70976;BME280;58635;51.198;6.010;2023-11-18T00:37:30;102232.47;;;9.39;64.92
70976;BME280;58635;51.198;6.010;2023-11-18T00:39:57;102223.91;;;9.38;65.06
70976;BME280;58635;51.198;6.010;2023-11-18T00:42:23;102224.88;;;9.37;65.09
70976;BME280;58635;51.198;6.010;2023-11-18T00:44:50;102229.38;;;9.35;65.20
70976;BME280;58635;51.198;6.010;2023-11-18T00:47:16;102226.94;;;9.34;64.99
70976;BME280;58635;51.198;6.010;2023-11-18T00:49:42;102221.13;;;9.32;65.05
70976;BME280;58635;51.198;6.010;2023-11-18T00:52:09;102211.91;;;9.29;64.86
70976;BME280;58635;51.198;6.010;2023-11-18T00:54:35;102214.94;;;9.25;64.89
70976;BME280;58635;51.198;6.010;2023-11-18T00:57:02;102215.91;;;9.24;64.78
70976;BME280;58635;51.198;6.010;2023-11-18T00:59:29;102214.41;;;9.21;64.96
70976;BME280;58635;51.198;6.010;2023-11-18T01:01:55;102217.28;;;9.18;64.98
70976;BME280;58635;51.198;6.010;2023-11-18T01:04:22;102220.03;;;9.17;64.97
70976;BME280;58635;51.198;6.010;2023-11-18T01:06:48;102221.81;;;9.16;64.88
70976;BME280;58635;51.198;6.010;2023-11-18T01:09:14;102225.50;;;9.14;64.87
70976;BME280;58635;51.198;6.010;2023-11-18T01:11:42;102229.16;;;9.11;64.96
70976;BME280;58635;51.198;6.010;2023-11-18T01:14:08;102223.34;;;9.09;65.27
70976;BME280;58635;51.198;6.010;2023-11-18T01:16:35;102230.13;;;9.10;65.16
70976;BME280;58635;51.198;6.010;2023-11-18T01:19:01;102228.50;;;9.09;65.35
70976;BME280;58635;51.198;6.010;2023-11-18T01:21:27;102232.69;;;9.10;65.27
70976;BME280;58635;51.198;6.010;2023-11-18T01:23:53;102240.44;;;9.10;65.48
70976;BME280;58635;51.198;6.010;2023-11-18T01:26:20;102244.66;;;9.11;65.37
70976;BME280;58635;51.198;6.010;2023-11-18T01:28:47;102242.75;;;9.13;65.42
70976;BME280;58635;51.198;6.010;2023-11-18T01:31:14;102242.75;;;9.13;65.80
70976;BME280;58635;51.198;6.010;2023-11-18T01:33:40;102248.56;;;9.15;65.45
70976;BME280;58635;51.198;6.010;2023-11-18T01:36:08;102235.66;;;9.15;65.56
70976;BME280;58635;51.198;6.010;2023-11-18T01:38:38;102240.81;;;9.15;65.56
70976;BME280;58635;51.198;6.010;2023-11-18T01:41:05;102239.88;;;9.16;65.63
70976;BME280;58635;51.198;6.010;2023-11-18T01:43:32;102241.34;;;9.19;65.54
70976;BME280;58635;51.198;6.010;2023-11-18T01:45:59;102248.94;;;9.20;65.54
70976;BME280;58635;51.198;6.010;2023-11-18T01:48:29;102247.16;;;9.21;65.61
70976;BME280;58635;51.198;6.010;2023-11-18T01:51:01;102252.31;;;9.21;65.53
70976;BME280;58635;51.198;6.010;2023-11-18T01:53:30;102258.94;;;9.23;65.68
70976;BME280;58635;51.198;6.010;2023-11-18T01:55:57;102259.78;;;9.24;65.62
70976;BME280;58635;51.198;6.010;2023-11-18T01:58:25;102256.38;;;9.23;65.85
70976;BME280;58635;51.198;6.010;2023-11-18T02:00:53;102249.47;;;9.24;65.64
70976;BME280;58635;51.198;6.010;2023-11-18T02:03:19;102256.25;;;9.25;65.66
70976;BME280;58635;51.198;6.010;2023-11-18T02:05:46;102245.91;;;9.25;65.56
70976;BME280;58635;51.198;6.010;2023-11-18T02:08:12;102239.94;;;9.24;65.70
70976;BME280;58635;51.198;6.010;2023-11-18T02:10:54;102243.34;;;9.25;65.67
70976;BME280;58635;51.198;6.010;2023-11-18T02:13:24;102244.31;;;9.24;65.69
70976;BME280;58635;51.198;6.010;2023-11-18T02:15:54;102244.31;;;9.24;65.72
70976;BME280;58635;51.198;6.010;2023-11-18T02:18:24;102246.88;;;9.24;66.01
70976;BME280;58635;51.198;6.010;2023-11-18T02:20:54;102235.44;;;9.26;65.89
70976;BME280;58635;51.198;6.010;2023-11-18T02:23:21;102231.09;;;9.27;65.85
70976;BME280;58635;51.198;6.010;2023-11-18T02:25:48;102230.94;;;9.28;65.78
70976;BME280;58635;51.198;6.010;2023-11-18T02:28:15;102230.94;;;9.28;65.64
70976;BME280;58635;51.198;6.010;2023-11-18T02:30:42;102234.16;;;9.30;65.75
70976;BME280;58635;51.198;6.010;2023-11-18T02:36:08;102239.66;;;9.27;65.86
70976;BME280;58635;51.198;6.010;2023-11-18T02:38:41;102247.91;;;9.31;65.87
70976;BME280;58635;51.198;6.010;2023-11-18T02:41:12;102243.53;;;9.31;65.97
70976;BME280;58635;51.198;6.010;2023-11-18T02:43:40;102240.16;;;9.31;65.80
70976;BME280;58635;51.198;6.010;2023-11-18T02:46:07;102237.41;;;9.32;65.79
70976;BME280;58635;51.198;6.010;2023-11-18T02:48:35;102245.00;;;9.34;65.89
70976;BME280;58635;51.198;6.010;2023-11-18T02:51:04;102245.97;;;9.33;65.82
70976;BME280;58635;51.198;6.010;2023-11-18T02:53:30;102237.94;;;9.36;65.82
70976;BME280;58635;51.198;6.010;2023-11-18T02:55:57;102233.44;;;9.38;65.77
70976;BME280;58635;51.198;6.010;2023-11-18T02:58:29;102230.69;;;9.40;66.00
70976;BME280;58635;51.198;6.010;2023-11-18T03:00:56;102229.75;;;9.41;65.86
70976;BME280;58635;51.198;6.010;2023-11-18T03:03:23;102226.19;;;9.42;65.81
70976;BME280;58635;51.198;6.010;2023-11-18T03:05:49;102226.03;;;9.43;65.80
70976;BME280;58635;51.198;6.010;2023-11-18T03:08:16;102226.03;;;9.43;65.84
70976;BME280;58635;51.198;6.010;2023-11-18T03:10:42;102217.34;;;9.44;65.90
70976;BME280;58635;51.198;6.010;2023-11-18T03:13:10;102207.81;;;9.45;65.84
70976;BME280;58635;51.198;6.010;2023-11-18T03:15:38;102201.84;;;9.44;65.80
70976;BME280;58635;51.198;6.010;2023-11-18T03:18:04;102194.91;;;9.45;65.99
70976;BME280;58635;51.198;6.010;2023-11-18T03:20:33;102193.13;;;9.45;65.77
70976;BME280;58635;51.198;6.010;2023-11-18T03:23:00;102189.72;;;9.45;65.89
70976;BME280;58635;51.198;6.010;2023-11-18T03:25:29;102190.69;;;9.44;65.84
70976;BME280;58635;51.198;6.010;2023-11-18T03:27:55;102200.06;;;9.45;65.80
70976;BME280;58635;51.198;6.010;2023-11-18T03:30:21;102188.91;;;9.44;65.94
70976;BME280;58635;51.198;6.010;2023-11-18T03:32:48;102184.72;;;9.43;65.94
70976;BME280;58635;51.198;6.010;2023-11-18T03:35:14;102190.69;;;9.44;65.75
70976;BME280;58635;51.198;6.010;2023-11-18T03:37:41;102191.50;;;9.44;65.90
70976;BME280;58635;51.198;6.010;2023-11-18T03:40:09;102192.47;;;9.43;65.80
70976;BME280;58635;51.198;6.010;2023-11-18T03:42:36;102208.13;;;9.42;65.79
70976;BME280;58635;51.198;6.010;2023-11-18T03:45:03;102204.72;;;9.41;65.95
70976;BME280;58635;51.198;6.010;2023-11-18T03:47:30;102201.50;;;9.39;65.68
70976;BME280;58635;51.198;6.010;2023-11-18T03:49:57;102208.28;;;9.40;65.88
70976;BME280;58635;51.198;6.010;2023-11-18T03:52:24;102200.53;;;9.40;65.96
70976;BME280;58635;51.198;6.010;2023-11-18T03:54:50;102195.34;;;9.40;65.79
70976;BME280;58635;51.198;6.010;2023-11-18T03:57:17;102192.78;;;9.40;65.85
70976;BME280;58635;51.198;6.010;2023-11-18T03:59:43;102192.28;;;9.36;65.97
70976;BME280;58635;51.198;6.010;2023-11-18T04:02:09;102194.16;;;9.34;66.08
70976;BME280;58635;51.198;6.010;2023-11-18T04:04:37;102185.63;;;9.34;66.12
70976;BME280;58635;51.198;6.010;2023-11-18T04:07:04;102171.75;;;9.35;66.09
70976;BME280;58635;51.198;6.010;2023-11-18T04:09:30;102164.00;;;9.35;65.98
70976;BME280;58635;51.198;6.010;2023-11-18T04:11:57;102168.88;;;9.38;66.12
70976;BME280;58635;51.198;6.010;2023-11-18T04:14:24;102167.09;;;9.38;66.14
70976;BME280;58635;51.198;6.010;2023-11-18T04:16:51;102160.97;;;9.40;65.99
70976;BME280;58635;51.198;6.010;2023-11-18T04:19:18;102154.19;;;9.38;65.87
70976;BME280;58635;51.198;6.010;2023-11-18T04:21:46;102147.25;;;9.39;65.88
70976;BME280;58635;51.198;6.010;2023-11-18T04:24:15;102143.72;;;9.40;65.93
70976;BME280;58635;51.198;6.010;2023-11-18T04:26:41;102143.72;;;9.40;66.02
70976;BME280;58635;51.198;6.010;2023-11-18T04:29:08;102147.09;;;9.41;66.00
70976;BME280;58635;51.198;6.010;2023-11-18T04:31:34;102141.94;;;9.41;65.97
70976;BME280;58635;51.198;6.010;2023-11-18T04:34:02;102138.56;;;9.40;65.89
70976;BME280;58635;51.198;6.010;2023-11-18T04:36:30;102137.75;;;9.40;66.12
70976;BME280;58635;51.198;6.010;2023-11-18T04:38:57;102128.69;;;9.35;66.08
70976;BME280;58635;51.198;6.010;2023-11-18T04:41:23;102122.56;;;9.36;66.15
70976;BME280;58635;51.198;6.010;2023-11-18T04:43:50;102129.50;;;9.36;66.30
70976;BME280;58635;51.198;6.010;2023-11-18T04:46:16;102126.75;;;9.37;66.13
70976;BME280;58635;51.198;6.010;2023-11-18T04:48:43;102124.34;;;9.36;66.33
70976;BME280;58635;51.198;6.010;2023-11-18T04:51:09;102120.09;;;9.35;66.44
70976;BME280;58635;51.198;6.010;2023-11-18T04:53:36;102124.84;;;9.40;66.32
70976;BME280;58635;51.198;6.010;2023-11-18T04:56:02;102120.47;;;9.40;66.31
70976;BME280;58635;51.198;6.010;2023-11-18T04:58:29;102106.91;;;9.38;66.51
70976;BME280;58635;51.198;6.010;2023-11-18T05:00:55;102104.31;;;9.38;66.32
70976;BME280;58635;51.198;6.010;2023-11-18T05:03:21;102097.69;;;9.35;66.38
70976;BME280;58635;51.198;6.010;2023-11-18T05:05:47;102108.03;;;9.35;66.41
70976;BME280;58635;51.198;6.010;2023-11-18T05:08:19;102107.06;;;9.36;66.48
70976;BME280;58635;51.198;6.010;2023-11-18T05:10:50;102103.69;;;9.36;66.48
70976;BME280;58635;51.198;6.010;2023-11-18T05:13:17;102089.13;;;9.35;66.35
70976;BME280;58635;51.198;6.010;2023-11-18T05:15:45;102080.72;;;9.33;66.62
70976;BME280;58635;51.198;6.010;2023-11-18T05:18:13;102089.28;;;9.33;66.52
70976;BME280;58635;51.198;6.010;2023-11-18T05:20:43;102080.72;;;9.33;66.62
70976;BME280;58635;51.198;6.010;2023-11-18T05:23:09;102084.91;;;9.34;66.55
70976;BME280;58635;51.198;6.010;2023-11-18T05:25:36;102087.38;;;9.35;66.42
70976;BME280;58635;51.198;6.010;2023-11-18T05:28:03;102084.63;;;9.37;66.51
70976;BME280;58635;51.198;6.010;2023-11-18T05:30:31;102075.94;;;9.38;66.53
70976;BME280;58635;51.198;6.010;2023-11-18T05:32:57;102072.38;;;9.39;66.47
70976;BME280;58635;51.198;6.010;2023-11-18T05:35:25;102067.06;;;9.41;66.37
70976;BME280;58635;51.198;6.010;2023-11-18T05:37:54;102056.88;;;9.39;66.53
70976;BME280;58635;51.198;6.010;2023-11-18T05:40:21;102058.81;;;9.37;66.46
70976;BME280;58635;51.198;6.010;2023-11-18T05:42:48;102048.50;;;9.37;66.44
70976;BME280;58635;51.198;6.010;2023-11-18T05:45:18;102051.88;;;9.37;66.50
70976;BME280;58635;51.198;6.010;2023-11-18T05:47:54;102063.00;;;9.38;66.58
70976;BME280;58635;51.198;6.010;2023-11-18T05:50:22;102065.59;;;9.38;66.49
70976;BME280;58635;51.198;6.010;2023-11-18T05:52:50;102072.53;;;9.37;66.52
70976;BME280;58635;51.198;6.010;2023-11-18T05:55:17;102057.38;;;9.43;66.52
70976;BME280;58635;51.198;6.010;2023-11-18T05:57:43;102055.28;;;9.46;66.39
70976;BME280;58635;51.198;6.010;2023-11-18T06:00:14;102057.75;;;9.48;66.38
70976;BME280;58635;51.198;6.010;2023-11-18T06:02:42;102050.00;;;9.48;66.14
70976;BME280;58635;51.198;6.010;2023-11-18T06:05:09;102046.44;;;9.49;66.40
70976;BME280;58635;51.198;6.010;2023-11-18T06:07:36;102044.81;;;9.48;66.30
70976;BME280;58635;51.198;6.010;2023-11-18T06:10:02;102052.41;;;9.49;66.28
70976;BME280;58635;51.198;6.010;2023-11-18T06:12:31;102054.03;;;9.50;66.28
70976;BME280;58635;51.198;6.010;2023-11-18T06:14:58;102045.47;;;9.50;66.20
70976;BME280;58635;51.198;6.010;2023-11-18T06:17:25;102042.91;;;9.50;66.22
70976;BME280;58635;51.198;6.010;2023-11-18T06:19:51;102043.69;;;9.50;66.20
70976;BME280;58635;51.198;6.010;2023-11-18T06:22:18;102033.38;;;9.50;66.22
70976;BME280;58635;51.198;6.010;2023-11-18T06:24:44;102012.72;;;9.50;66.17
70976;BME280;58635;51.198;6.010;2023-11-18T06:27:10;102000.59;;;9.51;66.18
70976;BME280;58635;51.198;6.010;2023-11-18T06:29:37;101994.94;;;9.47;66.11
70976;BME280;58635;51.198;6.010;2023-11-18T06:32:03;101998.63;;;9.45;66.17
70976;BME280;58635;51.198;6.010;2023-11-18T06:34:32;102014.59;;;9.40;66.22
70976;BME280;58635;51.198;6.010;2023-11-18T06:36:58;102024.78;;;9.42;66.31
70976;BME280;58635;51.198;6.010;2023-11-18T06:39:25;102034.94;;;9.43;66.20
70976;BME280;58635;51.198;6.010;2023-11-18T06:41:58;102037.22;;;9.46;66.11
70976;BME280;58635;51.198;6.010;2023-11-18T06:44:25;102027.69;;;9.47;66.20
70976;BME280;58635;51.198;6.010;2023-11-18T06:46:51;102022.22;;;9.50;66.10
70976;BME280;58635;51.198;6.010;2023-11-18T06:49:17;102032.25;;;9.53;65.90
70976;BME280;58635;51.198;6.010;2023-11-18T06:51:44;102039.03;;;9.54;66.06
70976;BME280;58635;51.198;6.010;2023-11-18T06:54:11;102034.81;;;9.53;66.12
70976;BME280;58635;51.198;6.010;2023-11-18T06:56:41;102041.78;;;9.52;65.98
70976;BME280;58635;51.198;6.010;2023-11-18T06:59:11;102037.41;;;9.53;66.00
70976;BME280;58635;51.198;6.010;2023-11-18T07:01:39;102036.59;;;9.52;66.06
70976;BME280;58635;51.198;6.010;2023-11-18T07:04:07;102039.03;;;9.54;66.04
70976;BME280;58635;51.198;6.010;2023-11-18T07:06:36;102036.28;;;9.55;66.06
70976;BME280;58635;51.198;6.010;2023-11-18T07:09:06;102031.13;;;9.55;66.03
70976;BME280;58635;51.198;6.010;2023-11-18T07:11:42;102031.78;;;9.57;66.17
70976;BME280;58635;51.198;6.010;2023-11-18T07:14:10;102026.31;;;9.60;66.14
70976;BME280;58635;51.198;6.010;2023-11-18T07:16:41;102012.28;;;9.63;66.09
70976;BME280;58635;51.198;6.010;2023-11-18T07:19:08;102005.16;;;9.65;66.28
70976;BME280;58635;51.198;6.010;2023-11-18T07:21:36;102010.97;;;9.67;65.95
70976;BME280;58635;51.198;6.010;2023-11-18T07:24:02;102013.41;;;9.68;65.94
70976;BME280;58635;51.198;6.010;2023-11-18T07:26:29;102000.31;;;9.70;65.98
70976;BME280;58635;51.198;6.010;2023-11-18T07:28:55;101996.81;;;9.71;65.91
70976;BME280;58635;51.198;6.010;2023-11-18T07:31:22;102000.84;;;9.74;65.74
70976;BME280;58635;51.198;6.010;2023-11-18T07:33:48;102011.00;;;9.75;65.72
70976;BME280;58635;51.198;6.010;2023-11-18T07:36:16;102008.09;;;9.78;65.68
70976;BME280;58635;51.198;6.010;2023-11-18T07:38:43;102012.31;;;9.79;65.67
70976;BME280;58635;51.198;6.010;2023-11-18T07:41:09;102010.38;;;9.81;65.77
70976;BME280;58635;51.198;6.010;2023-11-18T07:43:36;102009.41;;;9.82;65.54
70976;BME280;58635;51.198;6.010;2023-11-18T07:46:03;102009.25;;;9.84;65.70
70976;BME280;58635;51.198;6.010;2023-11-18T07:48:30;102004.75;;;9.86;65.68
70976;BME280;58635;51.198;6.010;2023-11-18T07:50:57;102004.59;;;9.87;65.50
70976;BME280;58635;51.198;6.010;2023-11-18T07:53:23;102014.09;;;9.87;65.57
70976;BME280;58635;51.198;6.010;2023-11-18T07:55:50;102009.75;;;9.87;65.67
70976;BME280;58635;51.198;6.010;2023-11-18T07:58:16;102018.94;;;9.90;65.63
70976;BME280;58635;51.198;6.010;2023-11-18T08:00:44;102016.38;;;9.90;65.65
70976;BME280;58635;51.198;6.010;2023-11-18T08:03:11;102017.19;;;9.90;65.71
70976;BME280;58635;51.198;6.010;2023-11-18T08:05:39;102016.03;;;9.93;65.56
70976;BME280;58635;51.198;6.010;2023-11-18T08:08:09;102018.50;;;9.94;65.47
70976;BME280;58635;51.198;6.010;2023-11-18T08:10:38;102022.69;;;9.95;65.45
70976;BME280;58635;51.198;6.010;2023-11-18T08:13:05;102021.41;;;10.00;65.44
70976;BME280;58635;51.198;6.010;2023-11-18T08:15:41;102021.06;;;10.03;65.29
70976;BME280;58635;51.198;6.010;2023-11-18T08:18:08;102017.53;;;10.04;65.30
70976;BME280;58635;51.198;6.010;2023-11-18T08:20:37;102018.16;;;10.06;65.40
70976;BME280;58635;51.198;6.010;2023-11-18T08:23:03;102015.13;;;10.10;65.17
70976;BME280;58635;51.198;6.010;2023-11-18T08:25:34;102010.44;;;10.14;65.35
70976;BME280;58635;51.198;6.010;2023-11-18T08:28:02;102011.25;;;10.14;65.32
70976;BME280;58635;51.198;6.010;2023-11-18T08:30:29;102003.31;;;10.16;65.22
70976;BME280;58635;51.198;6.010;2023-11-18T08:32:56;102012.03;;;10.15;65.24
70976;BME280;58635;51.198;6.010;2023-11-18T08:35:24;102004.28;;;10.15;65.35
70976;BME280;58635;51.198;6.010;2023-11-18T08:37:51;102000.56;;;10.17;65.39
70976;BME280;58635;51.198;6.010;2023-11-18T08:40:17;102003.66;;;10.21;65.17
70976;BME280;58635;51.198;6.010;2023-11-18T08:42:50;102009.19;;;10.26;65.15
70976;BME280;58635;51.198;6.010;2023-11-18T08:45:19;102001.91;;;10.30;65.16
70976;BME280;58635;51.198;6.010;2023-11-18T08:47:46;102003.22;;;10.34;65.05
70976;BME280;58635;51.198;6.010;2023-11-18T08:50:14;101995.13;;;10.37;65.10
70976;BME280;58635;51.198;6.010;2023-11-18T08:52:40;101990.28;;;10.42;64.93
70976;BME280;58635;51.198;6.010;2023-11-18T08:55:10;101987.53;;;10.43;64.86
70976;BME280;58635;51.198;6.010;2023-11-18T08:57:48;101990.75;;;10.45;64.65
70976;BME280;58635;51.198;6.010;2023-11-18T09:00:28;101985.25;;;10.48;64.92
70976;BME280;58635;51.198;6.010;2023-11-18T09:03:08;101980.09;;;10.48;65.18
70976;BME280;58635;51.198;6.010;2023-11-18T09:05:35;101978.78;;;10.52;64.90
70976;BME280;58635;51.198;6.010;2023-11-18T09:08:10;101973.47;;;10.54;64.79
70976;BME280;58635;51.198;6.010;2023-11-18T09:10:38;101970.53;;;10.57;64.79
70976;BME280;58635;51.198;6.010;2023-11-18T09:13:07;101963.09;;;10.62;64.69
70976;BME280;58635;51.198;6.010;2023-11-18T09:15:33;101965.50;;;10.64;64.65
70976;BME280;58635;51.198;6.010;2023-11-18T09:18:03;101967.63;;;10.68;64.78
70976;BME280;58635;51.198;6.010;2023-11-18T09:20:29;101968.88;;;10.72;64.44
70976;BME280;58635;51.198;6.010;2023-11-18T09:22:55;101965.16;;;10.75;64.82
70976;BME280;58635;51.198;6.010;2023-11-18T09:25:22;101969.34;;;10.76;64.51
70976;BME280;58635;51.198;6.010;2023-11-18T09:27:48;101968.38;;;10.77;64.43
70976;BME280;58635;51.198;6.010;2023-11-18T09:30:14;101964.03;;;10.77;64.45
70976;BME280;58635;51.198;6.010;2023-11-18T09:32:41;101967.25;;;10.79;64.61
70976;BME280;58635;51.198;6.010;2023-11-18T09:35:13;101964.03;;;10.77;64.73
70976;BME280;58635;51.198;6.010;2023-11-18T09:37:40;101962.72;;;10.81;64.76
70976;BME280;58635;51.198;6.010;2023-11-18T09:40:13;101954.31;;;10.79;64.94
70976;BME280;58635;51.198;6.010;2023-11-18T09:42:40;101965.47;;;10.80;64.86
70976;BME280;58635;51.198;6.010;2023-11-18T09:45:10;101966.28;;;10.80;64.82
70976;BME280;58635;51.198;6.010;2023-11-18T09:47:46;101954.31;;;10.79;64.78
70976;BME280;58635;51.198;6.010;2023-11-18T09:50:24;101950.75;;;10.80;64.87
70976;BME280;58635;51.198;6.010;2023-11-18T09:52:58;101956.28;;;10.77;64.77
70976;BME280;58635;51.198;6.010;2023-11-18T09:55:45;101954.31;;;10.79;65.01
70976;BME280;58635;51.198;6.010;2023-11-18T09:58:17;101938.63;;;10.81;65.07
70976;BME280;58635;51.198;6.010;2023-11-18T10:00:46;101925.34;;;10.84;64.95
70976;BME280;58635;51.198;6.010;2023-11-18T10:03:17;101919.19;;;10.85;65.06
70976;BME280;58635;51.198;6.010;2023-11-18T10:05:44;101909.31;;;10.89;65.10
70976;BME280;58635;51.198;6.010;2023-11-18T10:08:11;101892.34;;;10.86;65.23
70976;BME280;58635;51.198;6.010;2023-11-18T10:10:37;101894.75;;;10.88;65.33
70976;BME280;58635;51.198;6.010;2023-11-18T10:13:04;101887.78;;;10.88;65.46
70976;BME280;58635;51.198;6.010;2023-11-18T10:15:34;101893.78;;;10.89;65.85
70976;BME280;58635;51.198;6.010;2023-11-18T10:18:02;101889.25;;;10.91;65.44
70976;BME280;58635;51.198;6.010;2023-11-18T10:20:49;101890.38;;;10.88;65.63
70976;BME280;58635;51.198;6.010;2023-11-18T10:23:20;101887.97;;;10.87;65.81
70976;BME280;58635;51.198;6.010;2023-11-18T10:25:49;101884.41;;;10.88;65.89
70976;BME280;58635;51.198;6.010;2023-11-18T10:31:00;101870.16;;;10.92;65.82
70976;BME280;58635;51.198;6.010;2023-11-18T10:33:39;101869.19;;;10.93;65.91
70976;BME280;58635;51.198;6.010;2023-11-18T10:36:19;101876.63;;;10.96;65.88
70976;BME280;58635;51.198;6.010;2023-11-18T10:38:50;101877.25;;;10.98;65.99
70976;BME280;58635;51.198;6.010;2023-11-18T10:41:21;101851.84;;;11.01;66.07
70976;BME280;58635;51.198;6.010;2023-11-18T10:43:47;101849.09;;;11.03;66.14
70976;BME280;58635;51.198;6.010;2023-11-18T10:46:16;101845.16;;;11.07;66.16
70976;BME280;58635;51.198;6.010;2023-11-18T10:48:50;101844.00;;;11.09;65.92
70976;BME280;58635;51.198;6.010;2023-11-18T10:51:17;101840.44;;;11.10;66.31
70976;BME280;58635;51.198;6.010;2023-11-18T10:53:51;101828.00;;;11.14;65.98
70976;BME280;58635;51.198;6.010;2023-11-18T10:56:27;101819.25;;;11.15;66.24
70976;BME280;58635;51.198;6.010;2023-11-18T10:59:04;101811.28;;;11.17;65.98
70976;BME280;58635;51.198;6.010;2023-11-18T11:01:35;101805.94;;;11.18;66.48
70976;BME280;58635;51.198;6.010;2023-11-18T11:04:09;101800.75;;;11.18;66.27
70976;BME280;58635;51.198;6.010;2023-11-18T11:06:41;101800.22;;;11.23;66.30
70976;BME280;58635;51.198;6.010;2023-11-18T11:09:08;101805.25;;;11.24;66.38
70976;BME280;58635;51.198;6.010;2023-11-18T11:11:49;101813.50;;;11.28;66.50
70976;BME280;58635;51.198;6.010;2023-11-18T11:14:16;101812.16;;;11.32;66.45
70976;BME280;58635;51.198;6.010;2023-11-18T11:16:50;101802.09;;;11.37;66.56
70976;BME280;58635;51.198;6.010;2023-11-18T11:19:25;101800.94;;;11.39;66.38
70976;BME280;58635;51.198;6.010;2023-11-18T11:22:07;101785.22;;;11.41;66.45
70976;BME280;58635;51.198;6.010;2023-11-18T11:27:09;101777.72;;;11.46;66.44
70976;BME280;58635;51.198;6.010;2023-11-18T11:29:59;101767.34;;;11.46;66.29
70976;BME280;58635;51.198;6.010;2023-11-18T11:32:43;101762.81;;;11.48;66.37
70976;BME280;58635;51.198;6.010;2023-11-18T11:35:23;101758.28;;;11.50;66.31
70976;BME280;58635;51.198;6.010;2023-11-18T11:37:52;101755.31;;;11.53;66.26
70976;BME280;58635;51.198;6.010;2023-11-18T11:40:21;101760.16;;;11.56;66.36
70976;BME280;58635;51.198;6.010;2023-11-18T11:42:50;101762.56;;;11.58;66.28
70976;BME280;58635;51.198;6.010;2023-11-18T11:45:22;101768.38;;;11.60;66.26
70976;BME280;58635;51.198;6.010;2023-11-18T11:47:55;101768.03;;;11.63;66.07
70976;BME280;58635;51.198;6.010;2023-11-18T11:50:55;101750.72;;;11.63;65.80
70976;BME280;58635;51.198;6.010;2023-11-18T11:53:33;101739.19;;;11.66;65.48
70976;BME280;58635;51.198;6.010;2023-11-18T11:56:02;101729.44;;;11.68;65.87
70976;BME280;58635;51.198;6.010;2023-11-18T11:58:41;101711.91;;;11.70;65.62
70976;BME280;58635;51.198;6.010;2023-11-18T12:01:25;101704.78;;;11.72;65.60
70976;BME280;58635;51.198;6.010;2023-11-18T12:03:59;101698.78;;;11.71;65.90
70976;BME280;58635;51.198;6.010;2023-11-18T12:06:41;101682.88;;;11.75;65.65
70976;BME280;58635;51.198;6.010;2023-11-18T12:09:08;101683.06;;;11.73;65.61
70976;BME280;58635;51.198;6.010;2023-11-18T12:11:37;101683.88;;;11.74;65.85
70976;BME280;58635;51.198;6.010;2023-11-18T12:14:06;101680.47;;;11.73;65.76
70976;BME280;58635;51.198;6.010;2023-11-18T12:19:34;101662.13;;;11.60;65.84
70976;BME280;58635;51.198;6.010;2023-11-18T12:22:14;101650.16;;;11.59;65.86
70976;BME280;58635;51.198;6.010;2023-11-18T12:35:27;101604.06;;;11.54;66.04
70976;BME280;58635;51.198;6.010;2023-11-18T12:40:52;101578.88;;;11.48;66.04
70976;BME280;58635;51.198;6.010;2023-11-18T12:46:47;101561.91;;;11.46;66.20
70976;BME280;58635;51.198;6.010;2023-11-18T12:49:20;101557.34;;;11.48;66.15
70976;BME280;58635;51.198;6.010;2023-11-18T12:51:54;101549.41;;;11.49;66.23
70976;BME280;58635;51.198;6.010;2023-11-18T12:54:25;101537.28;;;11.50;66.28
70976;BME280;58635;51.198;6.010;2023-11-18T12:56:55;101521.16;;;11.54;66.26
70976;BME280;58635;51.198;6.010;2023-11-18T12:59:21;101518.41;;;11.56;66.57
70976;BME280;58635;51.198;6.010;2023-11-18T13:01:50;101513.22;;;11.56;66.19
70976;BME280;58635;51.198;6.010;2023-11-18T13:04:30;101504.66;;;11.55;66.34
70976;BME280;58635;51.198;6.010;2023-11-18T13:06:58;101498.66;;;11.55;66.31
70976;BME280;58635;51.198;6.010;2023-11-18T13:09:26;101484.28;;;11.52;66.58
70976;BME280;58635;51.198;6.010;2023-11-18T13:11:57;101473.50;;;11.49;66.81
70976;BME280;58635;51.198;6.010;2023-11-18T13:14:25;101466.88;;;11.46;66.81
70976;BME280;58635;51.198;6.010;2023-11-18T13:16:56;101460.53;;;11.49;66.81
70976;BME280;58635;51.198;6.010;2023-11-18T13:19:26;101440.63;;;11.49;66.67
70976;BME280;58635;51.198;6.010;2023-11-18T13:22:01;101450.34;;;11.47;66.76
70976;BME280;58635;51.198;6.010;2023-11-18T13:24:33;101444.81;;;11.50;66.94
70976;BME280;58635;51.198;6.010;2023-11-18T13:27:01;101447.03;;;11.53;66.92
70976;BME280;58635;51.198;6.010;2023-11-18T13:29:31;101450.41;;;11.54;66.74
70976;BME280;58635;51.198;6.010;2023-11-18T13:31:58;101437.03;;;11.50;67.20
70976;BME280;58635;51.198;6.010;2023-11-18T13:34:27;101435.97;;;11.45;66.94